Time;durP1;ratioP1;P1;durP2;ratioP2;P2;SDS_P1;SDS_P2;PMS_P1;PMS_P2;Temp;Humidity;BMP_temperature;BMP_pressure;BME280_temperature;BME280_humidity;BME280_pressure;Samples;Min_cycle;Max_cycle;Signal;HPM_P1;HPM_P2
2022/03/27 00:00:59;;;;;;;27.87;18.70;;;;;;;10.21;45.65;96483.94;4366657;32;20281;-65
2022/03/27 00:03:27;;;;;;;30.57;19.60;;;;;;;10.13;45.99;96484.44;4344029;32;20223;-65
2022/03/27 00:05:53;;;;;;;27.40;19.57;;;;;;;9.92;46.58;96474.84;4382671;32;20288;-66
2022/03/27 00:08:22;;;;;;;30.00;20.13;;;;;;;10.04;46.50;96478.03;4370819;32;20354;-65
2022/03/27 00:13:32;;;;;;;30.53;19.40;;;;;;;9.89;46.74;96483.31;4385709;32;20298;-65
2022/03/27 00:15:58;;;;;;;25.53;17.80;;;;;;;9.80;47.14;96471.59;4380956;32;20280;-65
2022/03/27 00:18:25;;;;;;;26.63;18.73;;;;;;;9.78;47.22;96481.66;4379980;32;20184;-65
2022/03/27 00:20:53;;;;;;;30.63;19.43;;;;;;;9.74;47.35;96485.91;4389719;32;20281;-65
2022/03/27 00:23:21;;;;;;;26.97;18.63;;;;;;;9.65;47.69;96488.22;4381896;32;20308;-65
2022/03/27 00:25:50;;;;;;;26.87;18.30;;;;;;;9.73;47.33;96479.00;4374424;32;20276;-65
2022/03/27 00:28:35;;;;;;;24.57;17.87;;;;;;;9.91;47.12;96475.88;4389199;32;20286;-65
2022/03/27 00:31:10;;;;;;;26.90;18.67;;;;;;;9.79;47.59;96477.94;4361910;32;20491;-65
2022/03/27 00:33:42;;;;;;;25.40;17.03;;;;;;;9.80;47.37;96474.25;4368511;32;20298;-65
2022/03/27 00:36:14;;;;;;;23.67;17.83;;;;;;;9.64;47.83;96479.47;4393279;32;20294;-65
2022/03/27 00:38:46;;;;;;;28.50;19.67;;;;;;;9.64;47.83;96476.03;4353260;32;20280;-65
2022/03/27 00:41:14;;;;;;;26.17;18.40;;;;;;;9.56;48.16;96474.66;4364013;32;20285;-65
2022/03/27 00:43:41;;;;;;;29.80;19.63;;;;;;;9.72;47.78;96472.09;4355670;32;20289;-64
2022/03/27 00:46:14;;;;;;;26.80;19.30;;;;;;;9.71;47.61;96473.16;4338789;32;20407;-65
2022/03/27 00:48:42;;;;;;;27.77;18.93;;;;;;;9.68;47.91;96489.56;4355351;32;20378;-65
2022/03/27 00:51:09;;;;;;;25.63;19.50;;;;;;;9.58;48.55;96480.50;4357669;32;20314;-66
2022/03/27 00:53:38;;;;;;;26.20;18.27;;;;;;;9.29;49.35;96490.69;4360209;32;20317;-65
2022/03/27 00:56:09;;;;;;;29.87;20.00;;;;;;;9.46;48.83;96487.06;4364413;32;20201;-65
2022/03/27 00:58:36;;;;;;;28.60;19.60;;;;;;;9.33;49.47;96480.41;4364833;32;20348;-65
2022/03/27 01:01:02;;;;;;;25.47;18.63;;;;;;;9.36;49.60;96487.81;4366789;32;20284;-66
2022/03/27 01:03:31;;;;;;;24.47;17.60;;;;;;;9.62;48.59;96478.16;4360921;32;20322;-65
2022/03/27 01:05:58;;;;;;;32.67;20.10;;;;;;;9.46;49.01;96484.44;4343887;32;20300;-65
2022/03/27 01:11:19;;;;;;;24.60;18.33;;;;;;;9.52;48.80;96473.63;4334131;32;20360;-65
2022/03/27 01:13:56;;;;;;;25.30;18.40;;;;;;;9.60;48.31;96473.09;4359613;32;20280;-65
2022/03/27 01:16:48;;;;;;;25.87;18.17;;;;;;;9.58;48.36;96477.84;4372151;32;20280;-65
2022/03/27 01:19:20;;;;;;;26.67;18.50;;;;;;;9.67;48.25;96477.38;4371229;32;20351;-65
2022/03/27 01:21:47;;;;;;;25.60;17.90;;;;;;;9.50;48.64;96470.41;4368126;32;20293;-66
2022/03/27 01:24:15;;;;;;;27.43;18.80;;;;;;;9.65;48.31;96470.47;4375272;32;20284;-65
2022/03/27 01:26:41;;;;;;;25.53;18.00;;;;;;;9.56;48.66;96466.72;4341764;32;20278;-65
2022/03/27 01:29:07;;;;;;;26.20;18.97;;;;;;;9.58;48.67;96459.31;4348020;32;20355;-65
2022/03/27 01:31:37;;;;;;;23.93;18.13;;;;;;;9.56;48.78;96464.06;4343047;32;20273;-65
2022/03/27 01:34:05;;;;;;;26.83;18.63;;;;;;;9.53;48.67;96461.16;4354404;32;20358;-65
2022/03/27 01:36:36;;;;;;;25.90;18.10;;;;;;;9.46;48.85;96463.25;4364322;32;21976;-64
2022/03/27 01:39:20;;;;;;;29.23;18.80;;;;;;;9.46;48.95;96456.09;4349875;32;20295;-65
2022/03/27 01:41:46;;;;;;;27.93;19.37;;;;;;;9.29;49.67;96452.84;4331983;32;20303;-65
2022/03/27 01:44:16;;;;;;;22.43;17.57;;;;;;;9.35;49.38;96456.31;4342272;32;20286;-65
2022/03/27 01:46:44;;;;;;;26.60;18.17;;;;;;;9.40;49.27;96454.47;4362918;32;20372;-64
2022/03/27 01:49:14;;;;;;;23.47;18.03;;;;;;;9.35;49.35;96451.81;4379025;32;20333;-64
2022/03/27 01:51:42;;;;;;;25.30;18.63;;;;;;;9.27;49.62;96457.59;4369329;32;20314;-65
2022/03/27 01:54:07;;;;;;;24.53;17.23;;;;;;;9.23;49.62;96451.19;4386685;32;20284;-65
2022/03/27 01:56:36;;;;;;;24.27;17.83;;;;;;;9.18;49.59;96451.16;4365868;32;20311;-65
2022/03/27 01:59:06;;;;;;;26.87;17.33;;;;;;;9.03;50.04;96453.72;4378643;32;20238;-65
2022/03/27 02:01:32;;;;;;;22.30;17.57;;;;;;;8.97;50.24;96450.25;4378623;32;20387;-65
2022/03/27 02:03:59;;;;;;;23.60;17.93;;;;;;;8.78;50.40;96444.56;4378281;32;20284;-65
2022/03/27 02:06:26;;;;;;;24.33;18.00;;;;;;;8.89;50.42;96448.87;4370929;32;20295;-65
2022/03/27 02:08:53;;;;;;;22.17;16.80;;;;;;;8.98;49.91;96445.75;4378344;32;20276;-65
2022/03/27 02:11:20;;;;;;;25.13;17.03;;;;;;;9.14;49.54;96444.81;4385059;32;20299;-65
2022/03/27 02:13:51;;;;;;;24.23;17.97;;;;;;;8.88;49.91;96455.22;4379351;32;20295;-64
2022/03/27 02:16:18;;;;;;;22.47;16.33;;;;;;;8.92;50.01;96440.44;4381106;32;20336;-64
2022/03/27 02:18:45;;;;;;;23.70;16.93;;;;;;;9.03;49.80;96440.50;4386328;32;20321;-65
2022/03/27 02:21:15;;;;;;;22.40;17.27;;;;;;;8.77;50.33;96444.81;4391365;32;20319;-65
2022/03/27 02:23:43;;;;;;;24.07;16.73;;;;;;;8.73;50.65;96443.75;4339603;32;20317;-65
2022/03/27 02:26:10;;;;;;;22.30;17.43;;;;;;;8.63;50.95;96449.75;4393840;32;20268;-65
2022/03/27 02:28:38;;;;;;;22.67;17.13;;;;;;;8.52;51.52;96443.56;4387568;32;20291;-64
2022/03/27 02:31:08;;;;;;;23.90;17.00;;;;;;;8.56;51.53;96446.50;4388657;32;20351;-64
2022/03/27 02:33:37;;;;;;;21.13;15.70;;;;;;;8.04;52.78;96447.06;4363104;32;20358;-64
2022/03/27 02:36:08;;;;;;;21.53;16.10;;;;;;;8.01;53.14;96447.56;4386988;32;20290;-65
2022/03/27 02:38:35;;;;;;;36.53;17.20;;;;;;;7.79;53.70;96449.44;4338534;32;20292;-65
2022/03/27 02:41:03;;;;;;;21.13;16.17;;;;;;;8.12;52.60;96449.25;4346087;32;20273;-65
2022/03/27 02:43:31;;;;;;;22.20;16.37;;;;;;;7.96;53.24;96459.91;4366078;32;20311;-65
2022/03/27 02:45:58;;;;;;;20.70;16.10;;;;;;;7.82;53.68;96446.31;4373294;32;20291;-65
2022/03/27 02:48:27;;;;;;;19.47;15.97;;;;;;;7.75;54.09;96453.59;4386592;32;20294;-64
2022/03/27 02:50:54;;;;;;;27.40;17.13;;;;;;;7.83;54.18;96448.69;4373004;32;20233;-66
2022/03/27 02:53:19;;;;;;;22.23;16.93;;;;;;;7.45;54.89;96459.34;4389161;32;20311;-65
2022/03/27 02:55:45;;;;;;;20.20;16.07;;;;;;;7.47;54.86;96452.78;4381700;32;20358;-65
2022/03/27 02:58:10;;;;;;;22.03;17.07;;;;;;;7.49;54.96;96450.66;4378499;32;20215;-64
2022/03/27 03:00:36;;;;;;;21.47;15.87;;;;;;;7.57;54.36;96452.09;4341551;32;20249;-64
2022/03/27 03:03:03;;;;;;;19.60;15.47;;;;;;;7.62;54.18;96446.88;4358114;32;20267;-64
2022/03/27 03:05:31;;;;;;;22.37;16.00;;;;;;;7.87;53.50;96449.00;4382263;32;20220;-65
2022/03/27 03:08:01;;;;;;;22.87;15.87;;;;;;;7.77;53.53;96449.69;4387742;32;20283;-65
2022/03/27 03:10:29;;;;;;;22.27;16.73;;;;;;;7.87;53.29;96449.00;4373690;32;20299;-67
2022/03/27 03:12:57;;;;;;;21.83;15.63;;;;;;;7.75;53.53;96456.25;4389090;32;20279;-65
2022/03/27 03:15:26;;;;;;;20.70;15.50;;;;;;;7.33;55.20;96462.06;4379527;32;20295;-65
2022/03/27 03:17:51;;;;;;;22.70;15.70;;;;;;;7.24;55.60;96458.28;4397180;32;20294;-65
2022/03/27 03:20:19;;;;;;;19.70;15.40;;;;;;;6.84;56.46;96461.94;4385919;32;20284;-65
2022/03/27 03:22:45;;;;;;;23.27;16.63;;;;;;;6.77;56.83;96458.66;4390289;32;20185;-65
2022/03/27 03:25:14;;;;;;;21.57;16.00;;;;;;;6.66;57.36;96458.72;4390875;32;20291;-65
2022/03/27 03:27:42;;;;;;;21.67;15.40;;;;;;;6.36;58.18;96451.13;4373519;32;20188;-65
2022/03/27 03:30:09;;;;;;;23.93;16.13;;;;;;;6.51;57.97;96459.28;4378365;32;20276;-65
2022/03/27 03:32:36;;;;;;;22.87;16.10;;;;;;;6.79;57.02;96459.22;4377369;32;20380;-65
2022/03/27 03:35:10;;;;;;;19.90;15.67;;;;;;;7.12;55.92;96454.91;4381407;32;20460;-65
2022/03/27 03:37:36;;;;;;;19.90;15.57;;;;;;;6.96;55.84;96458.38;4383982;32;20379;-65
2022/03/27 03:40:07;;;;;;;21.73;16.13;;;;;;;7.04;55.76;96453.50;4358937;32;20392;-65
2022/03/27 03:42:38;;;;;;;21.10;15.53;;;;;;;7.12;55.60;96449.66;4371603;32;20188;-65
2022/03/27 03:45:06;;;;;;;22.37;16.07;;;;;;;7.25;55.02;96449.31;4365711;32;20319;-65
2022/03/27 03:47:36;;;;;;;21.80;15.90;;;;;;;6.99;55.84;96458.72;4380494;32;20408;-65
2022/03/27 03:50:10;;;;;;;21.30;15.43;;;;;;;6.89;56.45;96455.91;4365715;32;20373;-65
2022/03/27 03:52:36;;;;;;;25.03;15.37;;;;;;;6.68;56.88;96460.06;4354613;32;20292;-65
2022/03/27 03:55:05;;;;;;;21.57;15.93;;;;;;;6.16;58.61;96457.66;4356101;32;20378;-65
2022/03/27 03:57:33;;;;;;;19.60;14.80;;;;;;;5.99;59.54;96456.81;4363802;32;26536;-65
2022/03/27 03:59:59;;;;;;;20.10;15.83;;;;;;;6.03;59.39;96457.94;4347679;32;20296;-65
2022/03/27 04:02:24;;;;;;;21.07;14.67;;;;;;;6.10;59.26;96457.78;4347679;32;20303;-65
2022/03/27 04:04:51;;;;;;;20.20;15.77;;;;;;;6.26;58.75;96456.22;4351231;32;20274;-65
2022/03/27 04:07:18;;;;;;;23.63;16.30;;;;;;;6.47;58.03;96451.03;4338120;32;20241;-65
2022/03/27 04:09:43;;;;;;;22.97;16.00;;;;;;;6.62;57.60;96442.59;4358632;32;20268;-64
2022/03/27 04:12:14;;;;;;;19.60;15.10;;;;;;;6.54;57.81;96445.62;4347630;32;20273;-65
2022/03/27 04:14:42;;;;;;;20.77;16.07;;;;;;;6.61;57.47;96451.56;4349408;32;20210;-65
2022/03/27 04:17:12;;;;;;;20.43;15.87;;;;;;;6.59;58.01;96451.00;4376218;32;20264;-65
2022/03/27 04:19:37;;;;;;;20.30;15.63;;;;;;;6.42;58.24;96460.72;4376073;32;20242;-65
2022/03/27 04:22:04;;;;;;;20.87;15.87;;;;;;;6.35;58.42;96439.78;4343065;32;20269;-65
2022/03/27 04:24:30;;;;;;;21.20;15.40;;;;;;;6.37;58.15;96447.47;4350592;32;20180;-65
2022/03/27 04:26:56;;;;;;;22.47;14.90;;;;;;;6.61;57.64;96443.63;4342979;32;20288;-65
2022/03/27 04:29:24;;;;;;;18.70;15.03;;;;;;;6.80;56.91;96444.19;4376736;32;20379;-65
2022/03/27 04:31:49;;;;;;;22.27;15.43;;;;;;;6.69;57.25;96442.41;4377739;32;20276;-65
2022/03/27 04:34:14;;;;;;;20.37;15.80;;;;;;;6.80;56.88;96445.00;4358537;32;20287;-65
2022/03/27 04:36:42;;;;;;;19.13;15.13;;;;;;;6.67;57.07;96442.66;4355386;32;20285;-66
2022/03/27 04:39:08;;;;;;;17.90;14.93;;;;;;;6.72;57.00;96445.38;4283968;32;20291;-65
2022/03/27 04:41:34;;;;;;;19.23;15.47;;;;;;;6.78;57.10;96441.78;4371611;32;20277;-65
2022/03/27 04:44:02;;;;;;;20.43;15.23;;;;;;;6.78;56.67;96444.44;4392578;32;20322;-65
2022/03/27 04:46:29;;;;;;;21.37;16.53;;;;;;;6.81;56.83;96446.59;4372773;32;20299;-65
2022/03/27 04:48:55;;;;;;;18.20;14.83;;;;;;;6.70;57.05;96455.38;4376664;32;20268;-65
2022/03/27 04:51:21;;;;;;;18.90;15.17;;;;;;;6.86;56.77;96451.13;4366594;32;20280;-65
2022/03/27 04:53:49;;;;;;;19.33;15.13;;;;;;;6.93;56.46;96445.69;4376065;32;20193;-65
2022/03/27 04:56:17;;;;;;;16.77;13.83;;;;;;;6.71;57.00;96449.06;4363605;32;20292;-65
2022/03/27 04:58:43;;;;;;;20.80;15.17;;;;;;;6.53;57.46;96444.03;4386706;32;20268;-64
2022/03/27 05:01:14;;;;;;;25.70;14.47;;;;;;;6.68;57.29;96449.53;4385027;32;20316;-65
2022/03/27 05:03:43;;;;;;;20.90;15.23;;;;;;;6.66;57.09;96446.34;4388496;32;20290;-65
2022/03/27 05:06:08;;;;;;;19.43;14.87;;;;;;;6.41;57.90;96445.94;4364101;32;20292;-65
2022/03/27 05:08:34;;;;;;;20.37;15.57;;;;;;;6.54;57.36;96445.62;4352254;32;20412;-65
2022/03/27 05:11:01;;;;;;;20.87;15.23;;;;;;;6.36;58.29;96440.59;4385595;32;20224;-65
2022/03/27 05:13:27;;;;;;;19.67;14.67;;;;;;;6.22;58.62;96455.13;4367761;32;20264;-67
2022/03/27 05:15:55;;;;;;;18.10;14.63;;;;;;;5.97;59.58;96458.88;4363523;32;20364;-65
2022/03/27 05:18:21;;;;;;;21.57;15.70;;;;;;;6.04;59.59;96464.00;4369348;32;20231;-65
2022/03/27 05:20:51;;;;;;;19.77;14.70;;;;;;;6.03;59.49;96463.19;4370839;32;20314;-65
2022/03/27 05:23:17;;;;;;;20.23;15.10;;;;;;;6.05;59.32;96476.12;4360300;32;20269;-65
2022/03/27 05:25:45;;;;;;;21.90;14.70;;;;;;;6.13;58.97;96467.84;4341884;32;20296;-65
2022/03/27 05:28:19;;;;;;;23.13;14.97;;;;;;;6.42;58.23;96463.38;4350593;32;20231;-65
2022/03/27 05:30:50;;;;;;;19.70;14.70;;;;;;;6.16;59.00;96465.56;4370885;32;20287;-65
2022/03/27 05:33:17;;;;;;;20.60;14.93;;;;;;;5.97;59.68;96474.69;4380193;32;20276;-65
2022/03/27 05:35:48;;;;;;;21.63;15.47;;;;;;;5.84;60.45;96474.91;4345029;32;20300;-65
2022/03/27 05:38:17;;;;;;;19.13;14.60;;;;;;;6.10;60.12;96474.41;4366677;32;20322;-65
2022/03/27 05:40:43;;;;;;;19.67;14.67;;;;;;;5.88;60.21;96470.78;4374776;32;20283;-64
2022/03/27 05:43:08;;;;;;;19.80;15.67;;;;;;;5.76;60.47;96472.69;4390566;32;20287;-64
2022/03/27 05:45:35;;;;;;;18.43;14.63;;;;;;;5.76;60.67;96472.69;4380674;32;20324;-64
2022/03/27 05:48:06;;;;;;;21.43;15.77;;;;;;;5.43;61.50;96484.63;4357342;32;20264;-65
2022/03/27 05:50:32;;;;;;;20.27;15.40;;;;;;;5.44;61.91;96475.72;4377764;32;20429;-65
2022/03/27 05:53:00;;;;;;;22.90;15.27;;;;;;;5.50;61.50;96480.06;4368558;32;20264;-65
2022/03/27 05:55:27;;;;;;;19.00;15.07;;;;;;;5.52;61.64;96470.09;4380119;32;20203;-64
2022/03/27 05:57:54;;;;;;;19.77;15.57;;;;;;;5.57;61.57;96476.50;4371579;32;20309;-64
2022/03/27 06:00:30;;;;;;;21.23;15.80;;;;;;;5.52;61.73;96478.00;4357723;32;20331;-64
2022/03/27 06:02:56;;;;;;;23.97;16.07;;;;;;;5.59;61.76;96479.72;4369039;32;20326;-65
2022/03/27 06:05:23;;;;;;;21.33;15.90;;;;;;;5.65;61.54;96470.88;4367843;32;20292;-64
2022/03/27 06:07:53;;;;;;;22.33;15.80;;;;;;;5.59;61.92;96477.88;4364658;32;20288;-64
2022/03/27 06:10:31;;;;;;;20.90;16.20;;;;;;;5.57;61.56;96474.69;4376104;32;20296;-64
2022/03/27 06:12:58;;;;;;;21.93;15.07;;;;;;;5.84;61.03;96474.91;4380394;32;20260;-64
2022/03/27 06:15:27;;;;;;;22.50;16.17;;;;;;;5.85;61.05;96466.00;4382234;32;20263;-66
2022/03/27 06:17:54;;;;;;;20.60;16.30;;;;;;;5.94;60.92;96472.53;4333667;32;20353;-64
2022/03/27 06:20:23;;;;;;;20.03;15.03;;;;;;;5.86;61.14;96472.84;4355972;32;20315;-65
2022/03/27 06:22:51;;;;;;;21.03;15.70;;;;;;;6.23;60.35;96467.25;4370071;32;20284;-65
2022/03/27 06:25:22;;;;;;;18.23;15.00;;;;;;;6.51;59.03;96464.56;4376390;32;20291;-65
2022/03/27 06:27:49;;;;;;;21.73;15.87;;;;;;;6.54;58.94;96467.50;4362872;32;20288;-65
2022/03/27 06:30:16;;;;;;;22.77;15.50;;;;;;;6.85;58.02;96471.44;4375008;32;20268;-65
2022/03/27 06:32:42;;;;;;;19.53;14.80;;;;;;;6.88;58.00;96470.13;4352746;32;20424;-65
2022/03/27 06:35:10;;;;;;;22.83;15.57;;;;;;;6.95;57.72;96476.06;4341783;32;20275;-64
2022/03/27 06:37:40;;;;;;;20.40;14.70;;;;;;;7.11;57.56;96471.78;4341537;32;20283;-65
2022/03/27 06:40:08;;;;;;;23.97;15.70;;;;;;;7.18;57.40;96480.34;4370071;32;20275;-64
2022/03/27 06:42:35;;;;;;;22.47;16.93;;;;;;;7.22;57.46;96476.19;4355688;32;20268;-64
2022/03/27 06:45:01;;;;;;;23.17;15.47;;;;;;;7.24;57.73;96482.81;4361729;32;20320;-65
2022/03/27 06:47:28;;;;;;;20.53;16.00;;;;;;;7.23;58.03;96488.34;4377250;32;20256;-65
2022/03/27 06:50:00;;;;;;;25.33;16.10;;;;;;;7.37;58.07;96484.31;4394135;32;20176;-65
2022/03/27 06:52:27;;;;;;;20.70;16.53;;;;;;;7.34;58.49;96479.50;4356116;32;20307;-65
2022/03/27 06:54:53;;;;;;;21.67;15.73;;;;;;;7.51;58.08;96479.44;4379316;32;20264;-65
2022/03/27 06:57:19;;;;;;;20.50;16.20;;;;;;;7.61;58.13;96484.06;4354305;32;20289;-65
2022/03/27 07:05:20;;;;;;;21.63;15.70;;;;;;;8.06;56.10;96483.81;4377193;32;20302;-64
2022/03/27 07:07:45;;;;;;;20.00;15.10;;;;;;;8.26;55.42;96482.19;4386038;32;20272;-65
2022/03/27 07:10:11;;;;;;;18.20;15.30;;;;;;;8.42;55.02;96485.00;4385404;32;20287;-64
2022/03/27 07:12:38;;;;;;;20.53;15.30;;;;;;;8.53;54.97;96479.53;4390248;32;20204;-65
2022/03/27 07:15:10;;;;;;;19.30;14.80;;;;;;;8.70;54.43;96487.37;4375147;32;20195;-65
2022/03/27 07:18:05;;;;;;;20.27;16.20;;;;;;;8.66;54.30;96480.19;4389279;32;20268;-64
2022/03/27 07:20:33;;;;;;;20.40;15.77;;;;;;;8.83;54.14;96481.63;4386840;32;20358;-65
2022/03/27 07:23:08;;;;;;;21.30;15.17;;;;;;;8.85;53.98;96484.03;4387160;32;20351;-65
2022/03/27 07:25:36;;;;;;;20.17;15.47;;;;;;;8.98;53.87;96482.78;4377433;32;20271;-65
2022/03/27 07:28:03;;;;;;;17.93;14.10;;;;;;;9.10;53.25;96478.13;4366761;32;20380;-65
2022/03/27 07:30:30;;;;;;;21.53;15.33;;;;;;;9.14;53.11;96479.22;4383456;32;20284;-65
2022/03/27 07:33:00;;;;;;;27.70;17.50;;;;;;;9.20;53.08;96480.84;4390623;32;20256;-65
2022/03/27 07:35:30;;;;;;;28.13;20.73;;;;;;;9.25;53.21;96476.38;4404310;32;20259;-65
2022/03/27 07:38:03;;;;;;;19.93;14.90;;;;;;;9.36;53.21;96479.84;4391241;32;20350;-65
2022/03/27 07:40:30;;;;;;;20.20;15.20;;;;;;;9.49;52.58;96484.72;4391771;32;20264;-65
2022/03/27 07:42:57;;;;;;;17.10;13.43;;;;;;;9.61;52.30;96482.66;4382321;32;20319;-66
2022/03/27 07:45:27;;;;;;;16.90;14.13;;;;;;;9.74;52.32;96480.59;4361872;32;20316;-65
2022/03/27 07:48:08;;;;;;;20.73;16.57;;;;;;;9.87;51.49;96485.41;4375313;32;20280;-65
2022/03/27 07:50:35;;;;;;;21.57;15.03;;;;;;;9.94;51.40;96483.31;4341539;32;20327;-66
2022/03/27 07:53:03;;;;;;;17.70;14.23;;;;;;;10.01;51.89;96486.50;4390787;32;20325;-67
2022/03/27 07:55:29;;;;;;;19.17;15.17;;;;;;;10.07;51.40;96487.34;4385267;32;20357;-67
2022/03/27 07:58:09;;;;;;;18.00;13.83;;;;;;;10.13;51.48;96481.00;4393502;32;20263;-66
2022/03/27 08:00:37;;;;;;;18.30;14.57;;;;;;;10.23;51.23;96484.47;4391869;32;20181;-66
2022/03/27 08:03:04;;;;;;;16.03;13.53;;;;;;;10.40;50.78;96483.44;4382372;32;20327;-67
2022/03/27 08:05:29;;;;;;;16.43;14.43;;;;;;;10.52;50.39;96484.81;4373811;32;20280;-66
2022/03/27 08:07:55;;;;;;;19.63;14.30;;;;;;;10.61;50.14;96474.44;4381398;32;20276;-66
2022/03/27 08:10:25;;;;;;;16.87;13.73;;;;;;;10.55;50.45;96480.84;4377268;32;20220;-66
2022/03/27 08:12:51;;;;;;;21.47;15.17;;;;;;;10.65;50.09;96475.53;4391411;32;20258;-66
2022/03/27 08:15:17;;;;;;;15.73;14.03;;;;;;;10.70;50.01;96483.50;4376041;32;20273;-67
2022/03/27 08:17:44;;;;;;;16.63;13.53;;;;;;;10.80;49.82;96475.56;4386286;32;20184;-67
2022/03/27 08:20:14;;;;;;;19.87;15.53;;;;;;;10.93;49.52;96471.56;4384647;32;20287;-66
2022/03/27 08:22:41;;;;;;;19.73;15.30;;;;;;;10.96;49.38;96479.78;4400179;32;20264;-66
2022/03/27 08:25:07;;;;;;;19.63;15.40;;;;;;;10.97;49.48;96481.38;4390836;32;20298;-67
2022/03/27 08:27:34;;;;;;;19.20;13.97;;;;;;;11.05;49.29;96468.59;4386062;32;20328;-66
2022/03/27 08:30:01;;;;;;;16.17;14.13;;;;;;;11.07;49.48;96475.25;4357324;32;20281;-67
2022/03/27 08:32:29;;;;;;;17.80;13.50;;;;;;;11.16;49.33;96478.16;4396039;32;20280;-67
2022/03/27 08:34:56;;;;;;;21.70;15.73;;;;;;;11.24;49.01;96477.59;4391169;32;20269;-66
2022/03/27 08:37:22;;;;;;;18.60;13.93;;;;;;;11.21;49.37;96476.31;4364894;32;20283;-66
2022/03/27 08:39:50;;;;;;;20.13;14.53;;;;;;;11.29;49.49;96469.63;4373613;32;20276;-67
2022/03/27 08:42:20;;;;;;;16.83;14.50;;;;;;;11.44;48.96;96472.25;4380370;32;20298;-67
2022/03/27 08:44:47;;;;;;;16.93;13.83;;;;;;;11.49;48.95;96474.09;4367856;32;20283;-66
2022/03/27 08:47:25;;;;;;;16.57;13.93;;;;;;;11.59;48.77;96472.22;4322183;32;20282;-66
2022/03/27 08:50:12;;;;;;;19.83;14.37;;;;;;;11.75;48.27;96474.81;4336234;32;20341;-67
2022/03/27 08:52:48;;;;;;;19.80;14.13;;;;;;;11.79;48.31;96474.03;4362676;32;20265;-67
2022/03/27 08:55:20;;;;;;;16.73;14.33;;;;;;;11.96;48.00;96468.38;4348156;32;20392;-66
2022/03/27 08:58:00;;;;;;;16.13;14.13;;;;;;;11.98;47.92;96471.56;4352360;32;20228;-66
2022/03/27 09:00:31;;;;;;;17.67;13.60;;;;;;;12.15;47.35;96468.56;4376206;32;20282;-66
2022/03/27 09:03:00;;;;;;;133.70;15.13;;;;;;;12.24;47.22;96470.38;4355266;32;20265;-59
2022/03/27 09:05:35;;;;;;;29.93;9.23;;;;;;;13.14;73.39;96463.81;4368734;32;20286;-58
2022/03/27 09:08:07;;;;;;;26.40;13.10;;;;;;;13.87;67.45;96463.63;4338151;32;20275;-59
2022/03/27 09:10:33;;;;;;;25.17;12.97;;;;;;;14.83;54.47;96470.28;4337719;32;20264;-60
2022/03/27 09:13:00;;;;;;;20.83;13.20;;;;;;;15.36;52.21;96462.72;4371070;32;20185;-59
2022/03/27 09:15:26;;;;;;;25.13;13.00;;;;;;;15.76;49.89;96465.75;4347999;32;20181;-59
2022/03/27 09:18:11;;;;;;;33.70;14.10;;;;;;;15.96;48.54;96467.22;4367586;32;20173;-59
2022/03/27 09:20:40;;;;;;;24.10;13.67;;;;;;;16.31;50.35;96471.03;4374482;32;20189;-60
2022/03/27 09:23:21;;;;;;;22.90;13.93;;;;;;;16.44;47.09;96465.63;4354211;32;20344;-59
2022/03/27 09:25:52;;;;;;;19.57;14.03;;;;;;;16.66;44.77;96464.09;4368298;32;20181;-59
2022/03/27 09:45:25;;;;;;;19.90;14.20;;;;;;;17.16;43.45;96454.81;4232729;33;20385;-60
2022/03/27 09:47:53;;;;;;;22.97;15.73;;;;;;;17.13;42.31;96465.37;4246854;33;20203;-60
2022/03/27 09:50:32;;;;;;;20.37;15.33;;;;;;;17.03;44.94;96461.06;4273415;33;20186;-59
2022/03/27 09:53:24;;;;;;;25.13;15.73;;;;;;;17.23;42.57;96450.94;4302434;33;20182;-59
2022/03/27 09:56:07;;;;;;;26.20;14.53;;;;;;;17.47;47.18;96459.38;4291463;32;20200;-60
2022/03/27 09:58:45;;;;;;;26.83;14.97;;;;;;;17.91;45.97;96442.37;4328488;32;20202;-60
2022/03/27 10:01:18;;;;;;;27.90;15.23;;;;;;;18.18;45.51;96450.19;4341458;32;20189;-59
2022/03/27 10:04:10;;;;;;;24.70;16.67;;;;;;;18.48;45.62;96445.00;4348389;32;20455;-60
2022/03/27 10:06:40;;;;;;;25.23;14.87;;;;;;;18.63;40.77;96452.62;4371779;32;20264;-60
2022/03/27 10:09:07;;;;;;;24.63;15.10;;;;;;;18.99;40.40;96446.88;4365344;32;20234;-60
2022/03/27 10:11:34;;;;;;;18.57;14.93;;;;;;;19.11;38.16;96440.87;4379535;32;20196;-59
2022/03/27 10:14:00;;;;;;;23.17;15.60;;;;;;;19.01;38.93;96447.34;4362500;32;20189;-60
2022/03/27 10:16:33;;;;;;;22.30;14.93;;;;;;;19.29;39.14;96447.00;4340813;32;20256;-60
2022/03/27 10:19:09;;;;;;;21.30;15.17;;;;;;;19.28;38.88;96451.59;4379768;32;20185;-60
2022/03/27 10:21:35;;;;;;;19.83;15.73;;;;;;;19.14;38.64;96446.38;4369573;32;20188;-58
2022/03/27 10:24:14;;;;;;;24.53;15.70;;;;;;;19.26;40.53;96453.00;4379320;32;20231;-58
2022/03/27 10:26:42;;;;;;;16.67;14.77;;;;;;;19.40;41.38;96443.63;4372825;32;20168;-59
2022/03/27 10:29:08;;;;;;;19.93;14.50;;;;;;;19.43;38.87;96451.06;4333314;32;20184;-60
2022/03/27 10:31:35;;;;;;;20.60;14.90;;;;;;;19.34;38.80;96444.09;4355906;32;20189;-60
2022/03/27 10:34:02;;;;;;;16.83;14.07;;;;;;;19.33;38.18;96443.31;4352648;32;20185;-59
2022/03/27 10:36:42;;;;;;;24.17;16.03;;;;;;;19.40;36.61;96437.44;4356678;32;20185;-60
2022/03/27 10:39:25;;;;;;;21.70;15.77;;;;;;;19.30;38.11;96432.44;4388185;32;20188;-60
2022/03/27 10:42:08;;;;;;;19.73;15.23;;;;;;;19.39;37.46;96427.78;4369276;32;20180;-60
2022/03/27 10:44:53;;;;;;;19.83;15.63;;;;;;;19.38;36.68;96428.91;4388304;32;20201;-60
2022/03/27 10:47:28;;;;;;;16.50;14.63;;;;;;;19.30;36.33;96421.66;4364478;32;20197;-60
2022/03/27 10:50:04;;;;;;;20.03;15.60;;;;;;;19.42;36.55;96419.06;4380951;32;20184;-60
2022/03/27 10:52:51;;;;;;;23.20;15.10;;;;;;;19.21;35.67;96424.38;4352736;32;20192;-59
2022/03/27 10:55:20;;;;;;;30.93;15.13;;;;;;;19.22;40.87;96421.34;4371082;32;20204;-59
2022/03/27 10:57:49;;;;;;;23.27;13.23;;;;;;;19.10;42.52;96421.25;4373613;32;20203;-59
2022/03/27 11:00:35;;;;;;;17.10;13.07;;;;;;;19.03;40.92;96412.88;4386541;32;20184;-59
2022/03/27 11:03:00;;;;;;;20.93;13.43;;;;;;;19.09;41.30;96414.28;4387845;32;20200;-59
2022/03/27 11:05:37;;;;;;;20.43;13.70;;;;;;;18.99;35.92;96417.28;4369775;32;20188;-59
2022/03/27 11:08:15;;;;;;;15.50;13.27;;;;;;;18.97;37.14;96407.97;4374776;32;20203;-59
2022/03/27 11:10:41;;;;;;;18.80;13.43;;;;;;;19.03;37.83;96407.47;4352847;32;20188;-59
2022/03/27 11:13:25;;;;;;;19.03;12.97;;;;;;;18.93;37.99;96404.31;4372664;32;20188;-59
2022/03/27 11:16:11;;;;;;;21.33;12.83;;;;;;;18.81;36.02;96405.78;4351827;32;20197;-58
2022/03/27 11:18:44;;;;;;;21.10;12.40;;;;;;;18.99;48.91;96406.53;4336190;32;20226;-58
2022/03/27 11:21:12;;;;;;;20.50;11.80;;;;;;;19.03;46.38;96398.63;4366460;32;20184;-59
2022/03/27 11:23:40;;;;;;;16.30;12.40;;;;;;;19.02;48.55;96397.84;4386161;32;20185;-59
2022/03/27 11:26:27;;;;;;;20.67;12.03;;;;;;;18.98;45.63;96393.41;4389481;32;20193;-58
2022/03/27 11:29:04;;;;;;;18.20;11.47;;;;;;;18.98;47.78;96394.19;4380853;32;20188;-58
2022/03/27 11:31:32;;;;;;;14.23;11.70;;;;;;;19.02;51.24;96392.44;4363122;32;20218;-58
2022/03/27 11:34:18;;;;;;;18.30;12.53;;;;;;;19.03;50.20;96391.34;4362480;32;20290;-56
2022/03/27 11:37:08;;;;;;;16.77;11.33;;;;;;;18.85;46.53;96384.44;4372136;32;20180;-59
2022/03/27 11:39:37;;;;;;;15.43;11.13;;;;;;;18.98;46.59;96382.66;4386530;32;20212;-58
2022/03/27 11:42:31;;;;;;;16.57;12.27;;;;;;;18.93;45.01;96394.34;4368767;32;20330;-58
2022/03/27 11:45:09;;;;;;;18.70;11.30;;;;;;;18.60;38.63;96387.94;4387406;32;20195;-58
2022/03/27 11:47:45;;;;;;;16.23;11.57;;;;;;;18.79;41.20;96386.50;4385154;32;20267;-59
2022/03/27 11:50:28;;;;;;;11.23;9.90;;;;;;;18.75;37.60;96374.00;4357182;32;20184;-57
2022/03/27 11:52:55;;;;;;;13.50;9.83;;;;;;;18.85;45.28;96379.84;4373844;32;20180;-59
2022/03/27 11:55:21;;;;;;;15.90;11.50;;;;;;;18.90;47.68;96380.78;4373030;32;20184;-59
2022/03/27 11:57:48;;;;;;;16.03;12.60;;;;;;;18.76;45.39;96379.06;4379616;32;20287;-58
2022/03/27 12:00:27;;;;;;;13.53;11.07;;;;;;;18.68;38.82;96366.44;4341997;32;20250;-58
2022/03/27 12:02:54;;;;;;;11.37;10.27;;;;;;;18.75;43.50;96371.31;4384501;32;20197;-57